sensor_id;sensor_type;location;lat;lon;timestamp;P1;durP1;ratioP1;P2;durP2;ratioP2
19623;SDS011;9959;49.798;9.928;2023-02-11T00:02:08;69.85;;;28.02;;
19623;SDS011;9959;49.798;9.928;2023-02-11T00:04:35;67.18;;;28.85;;
19623;SDS011;9959;49.798;9.928;2023-02-11T00:07:01;73.03;;;29.35;;
19623;SDS011;9959;49.798;9.928;2023-02-11T00:09:28;75.47;;;29.23;;
19623;SDS011;9959;49.798;9.928;2023-02-11T00:11:57;75.13;;;29.70;;
19623;SDS011;9959;49.798;9.928;2023-02-11T00:14:23;65.13;;;28.08;;
19623;SDS011;9959;49.798;9.928;2023-02-11T00:16:50;71.03;;;28.17;;
19623;SDS011;9959;49.798;9.928;2023-02-11T00:19:18;69.93;;;27.20;;
19623;SDS011;9959;49.798;9.928;2023-02-11T00:21:47;69.85;;;28.05;;
19623;SDS011;9959;49.798;9.928;2023-02-11T00:24:14;70.95;;;27.75;;
19623;SDS011;9959;49.798;9.928;2023-02-11T00:26:41;63.47;;;25.95;;
19623;SDS011;9959;49.798;9.928;2023-02-11T00:29:08;68.30;;;26.58;;
19623;SDS011;9959;49.798;9.928;2023-02-11T00:31:35;68.22;;;26.73;;
19623;SDS011;9959;49.798;9.928;2023-02-11T00:34:02;68.30;;;26.42;;
19623;SDS011;9959;49.798;9.928;2023-02-11T00:36:29;61.55;;;26.42;;
19623;SDS011;9959;49.798;9.928;2023-02-11T00:38:58;65.15;;;26.10;;
19623;SDS011;9959;49.798;9.928;2023-02-11T00:41:25;64.40;;;25.02;;
19623;SDS011;9959;49.798;9.928;2023-02-11T00:43:52;66.07;;;27.13;;
19623;SDS011;9959;49.798;9.928;2023-02-11T00:46:21;62.80;;;26.05;;
19623;SDS011;9959;49.798;9.928;2023-02-11T00:48:52;69.32;;;27.05;;
19623;SDS011;9959;49.798;9.928;2023-02-11T00:51:21;62.00;;;25.98;;
19623;SDS011;9959;49.798;9.928;2023-02-11T00:53:48;60.10;;;26.58;;
19623;SDS011;9959;49.798;9.928;2023-02-11T00:56:15;62.22;;;24.05;;
19623;SDS011;9959;49.798;9.928;2023-02-11T00:58:42;65.00;;;26.35;;
19623;SDS011;9959;49.798;9.928;2023-02-11T01:01:15;67.97;;;27.38;;
19623;SDS011;9959;49.798;9.928;2023-02-11T01:03:42;66.38;;;26.50;;
19623;SDS011;9959;49.798;9.928;2023-02-11T01:06:09;65.00;;;25.63;;
19623;SDS011;9959;49.798;9.928;2023-02-11T01:08:36;61.90;;;26.17;;
19623;SDS011;9959;49.798;9.928;2023-02-11T01:11:05;66.35;;;27.30;;
19623;SDS011;9959;49.798;9.928;2023-02-11T01:13:34;65.28;;;26.30;;
19623;SDS011;9959;49.798;9.928;2023-02-11T01:16:03;57.83;;;25.30;;
19623;SDS011;9959;49.798;9.928;2023-02-11T01:18:35;69.05;;;25.50;;
19623;SDS011;9959;49.798;9.928;2023-02-11T01:21:02;63.92;;;24.85;;
19623;SDS011;9959;49.798;9.928;2023-02-11T01:23:30;69.78;;;26.77;;
19623;SDS011;9959;49.798;9.928;2023-02-11T01:25:57;66.57;;;26.42;;
19623;SDS011;9959;49.798;9.928;2023-02-11T01:28:24;70.63;;;26.55;;
19623;SDS011;9959;49.798;9.928;2023-02-11T01:30:53;60.88;;;24.77;;
19623;SDS011;9959;49.798;9.928;2023-02-11T01:33:22;63.08;;;25.27;;
19623;SDS011;9959;49.798;9.928;2023-02-11T01:35:49;62.78;;;25.55;;
19623;SDS011;9959;49.798;9.928;2023-02-11T01:38:18;67.47;;;26.10;;
19623;SDS011;9959;49.798;9.928;2023-02-11T01:43:20;68.03;;;26.55;;
19623;SDS011;9959;49.798;9.928;2023-02-11T01:45:55;69.50;;;26.48;;
19623;SDS011;9959;49.798;9.928;2023-02-11T01:48:30;59.03;;;25.95;;
19623;SDS011;9959;49.798;9.928;2023-02-11T01:51:03;65.88;;;26.15;;
19623;SDS011;9959;49.798;9.928;2023-02-11T01:53:38;60.55;;;23.88;;
19623;SDS011;9959;49.798;9.928;2023-02-11T01:56:21;68.82;;;26.23;;
19623;SDS011;9959;49.798;9.928;2023-02-11T01:59:22;68.65;;;26.60;;
19623;SDS011;9959;49.798;9.928;2023-02-11T02:01:56;69.32;;;26.45;;
19623;SDS011;9959;49.798;9.928;2023-02-11T02:04:27;59.20;;;25.08;;
19623;SDS011;9959;49.798;9.928;2023-02-11T02:07:00;67.53;;;24.38;;
19623;SDS011;9959;49.798;9.928;2023-02-11T02:09:32;60.28;;;24.25;;
19623;SDS011;9959;49.798;9.928;2023-02-11T02:12:10;64.30;;;25.92;;
19623;SDS011;9959;49.798;9.928;2023-02-11T02:14:39;70.30;;;25.40;;
19623;SDS011;9959;49.798;9.928;2023-02-11T02:17:23;69.97;;;25.85;;
19623;SDS011;9959;49.798;9.928;2023-02-11T02:25:25;56.40;;;24.45;;
19623;SDS011;9959;49.798;9.928;2023-02-11T02:30:52;63.42;;;25.17;;
19623;SDS011;9959;49.798;9.928;2023-02-11T02:33:36;65.40;;;26.08;;
19623;SDS011;9959;49.798;9.928;2023-02-11T02:36:36;57.90;;;23.33;;
19623;SDS011;9959;49.798;9.928;2023-02-11T02:39:16;58.55;;;23.95;;
19623;SDS011;9959;49.798;9.928;2023-02-11T02:41:52;55.30;;;22.88;;
19623;SDS011;9959;49.798;9.928;2023-02-11T02:44:21;51.03;;;22.13;;
19623;SDS011;9959;49.798;9.928;2023-02-11T02:46:49;59.03;;;23.40;;
19623;SDS011;9959;49.798;9.928;2023-02-11T02:49:16;59.53;;;24.80;;
19623;SDS011;9959;49.798;9.928;2023-02-11T03:08:17;58.85;;;23.90;;
19623;SDS011;9959;49.798;9.928;2023-02-11T03:11:06;51.83;;;21.85;;
19623;SDS011;9959;49.798;9.928;2023-02-11T03:13:37;55.97;;;22.48;;
19623;SDS011;9959;49.798;9.928;2023-02-11T03:16:16;51.40;;;21.45;;
19623;SDS011;9959;49.798;9.928;2023-02-11T03:19:05;56.50;;;21.98;;
19623;SDS011;9959;49.798;9.928;2023-02-11T03:21:40;55.85;;;22.02;;
19623;SDS011;9959;49.798;9.928;2023-02-11T03:24:11;52.85;;;22.67;;
19623;SDS011;9959;49.798;9.928;2023-02-11T03:26:43;55.97;;;22.30;;
19623;SDS011;9959;49.798;9.928;2023-02-11T03:32:13;58.08;;;23.50;;
19623;SDS011;9959;49.798;9.928;2023-02-11T03:34:50;56.33;;;20.75;;
19623;SDS011;9959;49.798;9.928;2023-02-11T03:43:20;53.88;;;20.95;;
19623;SDS011;9959;49.798;9.928;2023-02-11T03:45:55;51.58;;;22.15;;
19623;SDS011;9959;49.798;9.928;2023-02-11T03:48:25;49.22;;;21.85;;
19623;SDS011;9959;49.798;9.928;2023-02-11T03:50:57;47.38;;;20.33;;
19623;SDS011;9959;49.798;9.928;2023-02-11T03:53:27;49.63;;;21.02;;
19623;SDS011;9959;49.798;9.928;2023-02-11T03:58:23;51.35;;;22.13;;
19623;SDS011;9959;49.798;9.928;2023-02-11T04:01:01;54.95;;;21.33;;
19623;SDS011;9959;49.798;9.928;2023-02-11T04:03:30;50.53;;;21.30;;
19623;SDS011;9959;49.798;9.928;2023-02-11T04:05:58;49.53;;;21.08;;
19623;SDS011;9959;49.798;9.928;2023-02-11T04:08:25;54.33;;;21.23;;
19623;SDS011;9959;49.798;9.928;2023-02-11T04:10:52;52.15;;;22.23;;
19623;SDS011;9959;49.798;9.928;2023-02-11T04:13:21;53.92;;;20.75;;
19623;SDS011;9959;49.798;9.928;2023-02-11T04:15:48;50.85;;;21.48;;
19623;SDS011;9959;49.798;9.928;2023-02-11T04:18:16;52.15;;;21.08;;
19623;SDS011;9959;49.798;9.928;2023-02-11T04:20:43;45.90;;;20.42;;
19623;SDS011;9959;49.798;9.928;2023-02-11T04:23:10;52.00;;;21.40;;
19623;SDS011;9959;49.798;9.928;2023-02-11T04:25:41;53.33;;;21.52;;
19623;SDS011;9959;49.798;9.928;2023-02-11T04:28:08;49.35;;;21.17;;
19623;SDS011;9959;49.798;9.928;2023-02-11T04:30:48;55.15;;;20.95;;
19623;SDS011;9959;49.798;9.928;2023-02-11T04:33:21;49.55;;;19.23;;
19623;SDS011;9959;49.798;9.928;2023-02-11T04:35:49;54.42;;;20.05;;
19623;SDS011;9959;49.798;9.928;2023-02-11T04:38:16;56.80;;;21.33;;
19623;SDS011;9959;49.798;9.928;2023-02-11T04:40:43;52.88;;;20.08;;
19623;SDS011;9959;49.798;9.928;2023-02-11T04:43:10;49.40;;;19.35;;
19623;SDS011;9959;49.798;9.928;2023-02-11T04:45:36;49.55;;;20.08;;
19623;SDS011;9959;49.798;9.928;2023-02-11T04:48:03;51.58;;;21.25;;
19623;SDS011;9959;49.798;9.928;2023-02-11T04:50:33;52.53;;;22.17;;
19623;SDS011;9959;49.798;9.928;2023-02-11T04:53:01;49.53;;;21.98;;
19623;SDS011;9959;49.798;9.928;2023-02-11T04:55:28;51.38;;;22.50;;
19623;SDS011;9959;49.798;9.928;2023-02-11T04:57:55;47.45;;;20.30;;
19623;SDS011;9959;49.798;9.928;2023-02-11T05:00:22;50.03;;;21.20;;
19623;SDS011;9959;49.798;9.928;2023-02-11T05:02:50;45.97;;;19.30;;
19623;SDS011;9959;49.798;9.928;2023-02-11T05:05:17;47.15;;;22.00;;
19623;SDS011;9959;49.798;9.928;2023-02-11T05:07:44;49.10;;;20.20;;
19623;SDS011;9959;49.798;9.928;2023-02-11T05:10:10;51.80;;;20.38;;
19623;SDS011;9959;49.798;9.928;2023-02-11T05:12:37;47.67;;;20.88;;
19623;SDS011;9959;49.798;9.928;2023-02-11T05:15:04;50.17;;;20.95;;
19623;SDS011;9959;49.798;9.928;2023-02-11T05:17:34;46.25;;;20.02;;
19623;SDS011;9959;49.798;9.928;2023-02-11T05:20:01;47.92;;;21.08;;
19623;SDS011;9959;49.798;9.928;2023-02-11T05:22:27;46.33;;;19.33;;
19623;SDS011;9959;49.798;9.928;2023-02-11T05:24:55;52.13;;;19.10;;
19623;SDS011;9959;49.798;9.928;2023-02-11T05:27:21;38.60;;;17.08;;
19623;SDS011;9959;49.798;9.928;2023-02-11T05:29:48;43.35;;;18.90;;
19623;SDS011;9959;49.798;9.928;2023-02-11T05:32:28;53.22;;;19.25;;
19623;SDS011;9959;49.798;9.928;2023-02-11T05:37:22;45.17;;;18.33;;
19623;SDS011;9959;49.798;9.928;2023-02-11T05:39:49;40.97;;;17.52;;
19623;SDS011;9959;49.798;9.928;2023-02-11T05:42:16;44.67;;;18.60;;
19623;SDS011;9959;49.798;9.928;2023-02-11T05:44:43;47.20;;;19.88;;
19623;SDS011;9959;49.798;9.928;2023-02-11T05:47:10;46.45;;;18.88;;
19623;SDS011;9959;49.798;9.928;2023-02-11T05:49:37;43.00;;;18.45;;
19623;SDS011;9959;49.798;9.928;2023-02-11T05:52:07;45.95;;;19.55;;
19623;SDS011;9959;49.798;9.928;2023-02-11T05:54:41;46.00;;;19.63;;
19623;SDS011;9959;49.798;9.928;2023-02-11T05:57:09;49.22;;;19.67;;
19623;SDS011;9959;49.798;9.928;2023-02-11T05:59:42;47.60;;;18.60;;
19623;SDS011;9959;49.798;9.928;2023-02-11T06:02:09;50.13;;;18.80;;
19623;SDS011;9959;49.798;9.928;2023-02-11T06:04:36;48.47;;;19.02;;
19623;SDS011;9959;49.798;9.928;2023-02-11T06:07:03;51.72;;;18.95;;
19623;SDS011;9959;49.798;9.928;2023-02-11T06:09:30;51.33;;;20.23;;
19623;SDS011;9959;49.798;9.928;2023-02-11T06:11:57;48.05;;;20.00;;
19623;SDS011;9959;49.798;9.928;2023-02-11T06:14:24;48.55;;;20.02;;
19623;SDS011;9959;49.798;9.928;2023-02-11T06:16:51;49.90;;;20.15;;
19623;SDS011;9959;49.798;9.928;2023-02-11T06:19:31;47.95;;;20.35;;
19623;SDS011;9959;49.798;9.928;2023-02-11T06:21:58;51.70;;;20.48;;
19623;SDS011;9959;49.798;9.928;2023-02-11T06:24:25;50.95;;;21.50;;
19623;SDS011;9959;49.798;9.928;2023-02-11T06:27:12;51.00;;;20.83;;
19623;SDS011;9959;49.798;9.928;2023-02-11T06:29:39;49.75;;;20.30;;
19623;SDS011;9959;49.798;9.928;2023-02-11T06:32:06;54.10;;;21.23;;
19623;SDS011;9959;49.798;9.928;2023-02-11T06:34:48;49.95;;;20.85;;
19623;SDS011;9959;49.798;9.928;2023-02-11T06:37:15;57.10;;;21.92;;
19623;SDS011;9959;49.798;9.928;2023-02-11T06:39:43;50.45;;;19.67;;
19623;SDS011;9959;49.798;9.928;2023-02-11T06:42:11;52.05;;;21.10;;
19623;SDS011;9959;49.798;9.928;2023-02-11T06:44:41;58.28;;;23.08;;
19623;SDS011;9959;49.798;9.928;2023-02-11T06:47:07;50.75;;;20.83;;
19623;SDS011;9959;49.798;9.928;2023-02-11T06:49:34;48.78;;;22.05;;
19623;SDS011;9959;49.798;9.928;2023-02-11T06:52:01;53.28;;;22.00;;
19623;SDS011;9959;49.798;9.928;2023-02-11T06:54:29;49.13;;;21.13;;
19623;SDS011;9959;49.798;9.928;2023-02-11T06:56:56;48.97;;;20.83;;
19623;SDS011;9959;49.798;9.928;2023-02-11T06:59:22;65.85;;;23.27;;
19623;SDS011;9959;49.798;9.928;2023-02-11T07:01:50;57.53;;;23.42;;
19623;SDS011;9959;49.798;9.928;2023-02-11T07:04:16;53.95;;;22.60;;
19623;SDS011;9959;49.798;9.928;2023-02-11T07:06:44;59.50;;;24.52;;
19623;SDS011;9959;49.798;9.928;2023-02-11T07:09:13;53.90;;;22.80;;
19623;SDS011;9959;49.798;9.928;2023-02-11T07:11:39;60.53;;;21.58;;
19623;SDS011;9959;49.798;9.928;2023-02-11T07:14:07;50.30;;;22.45;;
19623;SDS011;9959;49.798;9.928;2023-02-11T07:16:34;51.75;;;22.92;;
19623;SDS011;9959;49.798;9.928;2023-02-11T07:19:01;56.83;;;23.10;;
19623;SDS011;9959;49.798;9.928;2023-02-11T07:21:28;58.50;;;22.98;;
19623;SDS011;9959;49.798;9.928;2023-02-11T07:23:58;54.92;;;24.77;;
19623;SDS011;9959;49.798;9.928;2023-02-11T07:26:25;58.05;;;24.48;;
19623;SDS011;9959;49.798;9.928;2023-02-11T07:28:52;55.90;;;23.45;;
19623;SDS011;9959;49.798;9.928;2023-02-11T07:31:20;57.60;;;23.42;;
19623;SDS011;9959;49.798;9.928;2023-02-11T07:33:53;55.42;;;23.70;;
19623;SDS011;9959;49.798;9.928;2023-02-11T07:36:21;61.88;;;23.85;;
19623;SDS011;9959;49.798;9.928;2023-02-11T07:38:49;55.28;;;23.85;;
19623;SDS011;9959;49.798;9.928;2023-02-11T07:41:17;52.13;;;23.48;;
19623;SDS011;9959;49.798;9.928;2023-02-11T07:43:46;53.67;;;23.60;;
19623;SDS011;9959;49.798;9.928;2023-02-11T07:46:17;57.47;;;25.17;;
19623;SDS011;9959;49.798;9.928;2023-02-11T07:48:49;59.90;;;25.85;;
19623;SDS011;9959;49.798;9.928;2023-02-11T07:51:18;59.50;;;24.67;;
19623;SDS011;9959;49.798;9.928;2023-02-11T07:53:49;56.40;;;24.60;;
19623;SDS011;9959;49.798;9.928;2023-02-11T07:56:17;50.60;;;23.08;;
19623;SDS011;9959;49.798;9.928;2023-02-11T07:58:45;50.95;;;23.90;;
19623;SDS011;9959;49.798;9.928;2023-02-11T08:01:17;53.70;;;24.33;;
19623;SDS011;9959;49.798;9.928;2023-02-11T08:03:50;49.53;;;23.10;;
19623;SDS011;9959;49.798;9.928;2023-02-11T08:06:19;52.75;;;24.63;;
19623;SDS011;9959;49.798;9.928;2023-02-11T08:08:48;54.55;;;22.58;;
19623;SDS011;9959;49.798;9.928;2023-02-11T08:11:25;53.80;;;23.58;;
19623;SDS011;9959;49.798;9.928;2023-02-11T08:13:54;55.28;;;24.70;;
19623;SDS011;9959;49.798;9.928;2023-02-11T08:16:21;53.65;;;24.40;;
19623;SDS011;9959;49.798;9.928;2023-02-11T08:18:51;51.10;;;22.48;;
19623;SDS011;9959;49.798;9.928;2023-02-11T08:21:21;49.35;;;22.05;;
19623;SDS011;9959;49.798;9.928;2023-02-11T08:23:48;50.83;;;22.63;;
19623;SDS011;9959;49.798;9.928;2023-02-11T08:26:16;51.55;;;23.35;;
19623;SDS011;9959;49.798;9.928;2023-02-11T08:28:47;47.45;;;23.85;;
19623;SDS011;9959;49.798;9.928;2023-02-11T08:31:16;48.75;;;22.80;;
19623;SDS011;9959;49.798;9.928;2023-02-11T08:33:46;49.95;;;22.52;;
19623;SDS011;9959;49.798;9.928;2023-02-11T08:36:15;50.85;;;23.13;;
19623;SDS011;9959;49.798;9.928;2023-02-11T08:38:43;46.83;;;21.77;;
19623;SDS011;9959;49.798;9.928;2023-02-11T08:41:11;49.65;;;23.42;;
19623;SDS011;9959;49.798;9.928;2023-02-11T08:43:40;52.65;;;23.00;;
19623;SDS011;9959;49.798;9.928;2023-02-11T08:46:11;50.40;;;22.05;;
19623;SDS011;9959;49.798;9.928;2023-02-11T08:48:40;51.38;;;22.77;;
19623;SDS011;9959;49.798;9.928;2023-02-11T08:51:08;46.50;;;23.02;;
19623;SDS011;9959;49.798;9.928;2023-02-11T08:53:59;48.50;;;22.73;;
19623;SDS011;9959;49.798;9.928;2023-02-11T08:56:26;46.33;;;22.83;;
19623;SDS011;9959;49.798;9.928;2023-02-11T08:58:56;47.10;;;21.60;;
19623;SDS011;9959;49.798;9.928;2023-02-11T09:01:24;46.13;;;22.10;;
19623;SDS011;9959;49.798;9.928;2023-02-11T09:03:55;46.92;;;21.60;;
19623;SDS011;9959;49.798;9.928;2023-02-11T09:06:24;43.95;;;22.67;;
19623;SDS011;9959;49.798;9.928;2023-02-11T09:08:54;44.67;;;22.15;;
19623;SDS011;9959;49.798;9.928;2023-02-11T09:11:24;48.28;;;23.13;;
19623;SDS011;9959;49.798;9.928;2023-02-11T09:14:01;47.22;;;22.13;;
19623;SDS011;9959;49.798;9.928;2023-02-11T09:16:29;52.25;;;22.80;;
19623;SDS011;9959;49.798;9.928;2023-02-11T09:18:59;48.85;;;22.52;;
19623;SDS011;9959;49.798;9.928;2023-02-11T09:21:27;45.40;;;21.55;;
19623;SDS011;9959;49.798;9.928;2023-02-11T09:23:55;44.90;;;21.25;;
19623;SDS011;9959;49.798;9.928;2023-02-11T09:26:23;47.85;;;22.63;;
19623;SDS011;9959;49.798;9.928;2023-02-11T09:28:52;48.08;;;23.13;;
19623;SDS011;9959;49.798;9.928;2023-02-11T09:31:20;50.90;;;23.83;;
19623;SDS011;9959;49.798;9.928;2023-02-11T09:33:50;45.38;;;22.95;;
19623;SDS011;9959;49.798;9.928;2023-02-11T09:36:20;45.95;;;21.92;;
19623;SDS011;9959;49.798;9.928;2023-02-11T09:38:52;46.75;;;22.67;;
19623;SDS011;9959;49.798;9.928;2023-02-11T09:46:22;47.35;;;24.40;;
19623;SDS011;9959;49.798;9.928;2023-02-11T09:48:53;48.13;;;23.63;;
19623;SDS011;9959;49.798;9.928;2023-02-11T09:54:10;49.00;;;21.98;;
19623;SDS011;9959;49.798;9.928;2023-02-11T09:56:42;44.67;;;22.50;;
19623;SDS011;9959;49.798;9.928;2023-02-11T09:59:11;54.75;;;23.60;;
19623;SDS011;9959;49.798;9.928;2023-02-11T10:01:43;48.10;;;23.55;;
19623;SDS011;9959;49.798;9.928;2023-02-11T10:07:25;42.55;;;20.30;;
19623;SDS011;9959;49.798;9.928;2023-02-11T10:10:22;40.28;;;20.73;;
19623;SDS011;9959;49.798;9.928;2023-02-11T10:18:37;40.97;;;20.95;;
19623;SDS011;9959;49.798;9.928;2023-02-11T10:23:50;52.45;;;21.23;;
19623;SDS011;9959;49.798;9.928;2023-02-11T10:26:21;45.45;;;20.58;;
19623;SDS011;9959;49.798;9.928;2023-02-11T10:28:50;40.17;;;20.05;;
19623;SDS011;9959;49.798;9.928;2023-02-11T10:31:21;42.35;;;20.20;;
19623;SDS011;9959;49.798;9.928;2023-02-11T10:33:57;43.45;;;20.15;;
19623;SDS011;9959;49.798;9.928;2023-02-11T10:36:35;40.53;;;18.88;;
19623;SDS011;9959;49.798;9.928;2023-02-11T10:39:20;40.72;;;19.08;;
19623;SDS011;9959;49.798;9.928;2023-02-11T10:41:53;48.15;;;21.13;;
19623;SDS011;9959;49.798;9.928;2023-02-11T10:44:26;41.10;;;20.65;;
19623;SDS011;9959;49.798;9.928;2023-02-11T10:46:58;44.50;;;20.15;;
19623;SDS011;9959;49.798;9.928;2023-02-11T10:52:16;43.53;;;20.58;;
19623;SDS011;9959;49.798;9.928;2023-02-11T10:57:20;44.05;;;20.73;;
19623;SDS011;9959;49.798;9.928;2023-02-11T10:59:57;45.83;;;21.50;;
19623;SDS011;9959;49.798;9.928;2023-02-11T11:02:29;43.03;;;21.42;;
19623;SDS011;9959;49.798;9.928;2023-02-11T11:05:05;42.80;;;21.70;;
19623;SDS011;9959;49.798;9.928;2023-02-11T11:10:27;47.30;;;21.20;;
19623;SDS011;9959;49.798;9.928;2023-02-11T11:12:56;42.92;;;19.92;;
19623;SDS011;9959;49.798;9.928;2023-02-11T11:15:27;49.72;;;21.67;;
19623;SDS011;9959;49.798;9.928;2023-02-11T11:18:15;49.53;;;22.85;;
19623;SDS011;9959;49.798;9.928;2023-02-11T11:23:22;43.58;;;20.90;;
19623;SDS011;9959;49.798;9.928;2023-02-11T11:28:21;43.78;;;20.85;;
19623;SDS011;9959;49.798;9.928;2023-02-11T11:30:52;45.65;;;21.85;;
19623;SDS011;9959;49.798;9.928;2023-02-11T11:33:23;47.00;;;21.10;;
19623;SDS011;9959;49.798;9.928;2023-02-11T11:38:20;45.70;;;21.73;;
19623;SDS011;9959;49.798;9.928;2023-02-11T11:40:48;43.78;;;20.75;;
19623;SDS011;9959;49.798;9.928;2023-02-11T11:43:20;41.42;;;20.02;;
19623;SDS011;9959;49.798;9.928;2023-02-11T11:53:30;42.70;;;19.45;;
19623;SDS011;9959;49.798;9.928;2023-02-11T11:56:06;42.72;;;20.63;;
19623;SDS011;9959;49.798;9.928;2023-02-11T11:58:38;43.65;;;21.35;;
19623;SDS011;9959;49.798;9.928;2023-02-11T12:01:30;43.30;;;21.15;;
19623;SDS011;9959;49.798;9.928;2023-02-11T12:15:22;43.05;;;19.20;;
19623;SDS011;9959;49.798;9.928;2023-02-11T12:18:05;46.70;;;20.00;;
19623;SDS011;9959;49.798;9.928;2023-02-11T12:26:07;45.33;;;19.77;;
19623;SDS011;9959;49.798;9.928;2023-02-11T12:34:26;39.08;;;20.88;;
19623;SDS011;9959;49.798;9.928;2023-02-11T12:37:19;43.33;;;19.83;;
19623;SDS011;9959;49.798;9.928;2023-02-11T12:45:31;45.33;;;19.77;;
19623;SDS011;9959;49.798;9.928;2023-02-11T12:57:25;49.90;;;21.00;;
19623;SDS011;9959;49.798;9.928;2023-02-11T13:03:16;42.30;;;19.73;;
19623;SDS011;9959;49.798;9.928;2023-02-11T13:05:49;42.15;;;19.90;;
19623;SDS011;9959;49.798;9.928;2023-02-11T13:08:39;38.75;;;19.83;;
19623;SDS011;9959;49.798;9.928;2023-02-11T13:11:12;41.50;;;20.00;;
19623;SDS011;9959;49.798;9.928;2023-02-11T13:21:52;43.05;;;20.27;;
19623;SDS011;9959;49.798;9.928;2023-02-11T13:24:27;43.15;;;19.65;;
19623;SDS011;9959;49.798;9.928;2023-02-11T13:30:25;38.17;;;17.95;;
19623;SDS011;9959;49.798;9.928;2023-02-11T13:43:30;41.08;;;19.80;;
19623;SDS011;9959;49.798;9.928;2023-02-11T13:46:07;39.63;;;19.73;;
19623;SDS011;9959;49.798;9.928;2023-02-11T13:48:47;37.42;;;18.40;;
19623;SDS011;9959;49.798;9.928;2023-02-11T13:54:02;37.15;;;18.27;;
19623;SDS011;9959;49.798;9.928;2023-02-11T13:56:35;37.15;;;18.17;;
19623;SDS011;9959;49.798;9.928;2023-02-11T13:59:42;33.85;;;17.98;;
19623;SDS011;9959;49.798;9.928;2023-02-11T14:16:04;37.88;;;17.90;;
19623;SDS011;9959;49.798;9.928;2023-02-11T14:21:14;45.17;;;19.60;;
19623;SDS011;9959;49.798;9.928;2023-02-11T14:23:42;44.33;;;18.38;;
19623;SDS011;9959;49.798;9.928;2023-02-11T14:29:02;40.58;;;18.30;;
19623;SDS011;9959;49.798;9.928;2023-02-11T14:34:34;39.00;;;18.50;;
19623;SDS011;9959;49.798;9.928;2023-02-11T14:37:10;36.65;;;17.42;;
19623;SDS011;9959;49.798;9.928;2023-02-11T14:39:48;36.65;;;17.75;;
19623;SDS011;9959;49.798;9.928;2023-02-11T14:42:22;39.72;;;19.77;;
19623;SDS011;9959;49.798;9.928;2023-02-11T14:44:54;37.05;;;19.55;;
19623;SDS011;9959;49.798;9.928;2023-02-11T14:47:25;44.83;;;18.48;;
19623;SDS011;9959;49.798;9.928;2023-02-11T14:50:02;40.65;;;18.88;;
19623;SDS011;9959;49.798;9.928;2023-02-11T14:52:34;46.08;;;18.60;;
19623;SDS011;9959;49.798;9.928;2023-02-11T14:57:34;41.92;;;20.17;;
19623;SDS011;9959;49.798;9.928;2023-02-11T15:00:05;39.28;;;18.63;;
19623;SDS011;9959;49.798;9.928;2023-02-11T15:02:42;34.10;;;16.98;;
19623;SDS011;9959;49.798;9.928;2023-02-11T15:05:20;40.10;;;19.52;;
19623;SDS011;9959;49.798;9.928;2023-02-11T15:07:58;41.05;;;18.67;;
19623;SDS011;9959;49.798;9.928;2023-02-11T15:10:30;44.53;;;19.10;;
19623;SDS011;9959;49.798;9.928;2023-02-11T15:13:00;40.47;;;18.88;;
19623;SDS011;9959;49.798;9.928;2023-02-11T15:15:29;37.97;;;18.48;;
19623;SDS011;9959;49.798;9.928;2023-02-11T15:18:00;34.35;;;17.27;;
19623;SDS011;9959;49.798;9.928;2023-02-11T15:20:30;38.70;;;18.02;;
19623;SDS011;9959;49.798;9.928;2023-02-11T15:23:02;36.63;;;18.73;;
19623;SDS011;9959;49.798;9.928;2023-02-11T15:25:32;38.75;;;18.60;;
19623;SDS011;9959;49.798;9.928;2023-02-11T15:28:09;37.80;;;17.50;;
19623;SDS011;9959;49.798;9.928;2023-02-11T15:30:46;43.92;;;18.42;;
19623;SDS011;9959;49.798;9.928;2023-02-11T15:33:20;38.33;;;17.45;;
19623;SDS011;9959;49.798;9.928;2023-02-11T15:35:48;39.67;;;19.10;;
19623;SDS011;9959;49.798;9.928;2023-02-11T15:38:15;39.08;;;18.73;;
19623;SDS011;9959;49.798;9.928;2023-02-11T15:40:49;41.67;;;20.73;;
19623;SDS011;9959;49.798;9.928;2023-02-11T15:46:19;39.45;;;18.52;;
19623;SDS011;9959;49.798;9.928;2023-02-11T15:48:52;36.53;;;19.65;;
19623;SDS011;9959;49.798;9.928;2023-02-11T15:51:21;46.38;;;20.63;;
19623;SDS011;9959;49.798;9.928;2023-02-11T15:56:26;43.72;;;20.25;;
19623;SDS011;9959;49.798;9.928;2023-02-11T15:58:58;45.97;;;21.10;;
19623;SDS011;9959;49.798;9.928;2023-02-11T16:01:35;45.25;;;20.58;;
19623;SDS011;9959;49.798;9.928;2023-02-11T16:04:05;41.38;;;19.85;;
19623;SDS011;9959;49.798;9.928;2023-02-11T16:06:39;46.15;;;20.80;;
19623;SDS011;9959;49.798;9.928;2023-02-11T16:11:35;43.40;;;19.67;;
19623;SDS011;9959;49.798;9.928;2023-02-11T16:16:53;47.80;;;22.00;;
19623;SDS011;9959;49.798;9.928;2023-02-11T16:19:23;46.22;;;23.10;;
19623;SDS011;9959;49.798;9.928;2023-02-11T16:21:51;42.58;;;21.30;;
19623;SDS011;9959;49.798;9.928;2023-02-11T16:24:32;45.15;;;21.52;;
19623;SDS011;9959;49.798;9.928;2023-02-11T16:27:01;46.75;;;21.58;;
19623;SDS011;9959;49.798;9.928;2023-02-11T16:29:31;47.03;;;21.65;;
19623;SDS011;9959;49.798;9.928;2023-02-11T16:32:06;46.85;;;22.70;;
19623;SDS011;9959;49.798;9.928;2023-02-11T16:34:54;52.25;;;21.33;;
19623;SDS011;9959;49.798;9.928;2023-02-11T16:37:22;53.90;;;22.58;;
19623;SDS011;9959;49.798;9.928;2023-02-11T16:39:57;46.17;;;22.08;;
19623;SDS011;9959;49.798;9.928;2023-02-11T16:42:24;53.17;;;22.13;;
19623;SDS011;9959;49.798;9.928;2023-02-11T16:44:51;47.88;;;22.42;;
19623;SDS011;9959;49.798;9.928;2023-02-11T16:47:21;49.25;;;23.92;;
19623;SDS011;9959;49.798;9.928;2023-02-11T16:49:52;49.88;;;22.77;;
19623;SDS011;9959;49.798;9.928;2023-02-11T16:52:21;45.92;;;22.00;;
19623;SDS011;9959;49.798;9.928;2023-02-11T16:54:52;49.88;;;22.52;;
19623;SDS011;9959;49.798;9.928;2023-02-11T16:57:21;50.75;;;24.20;;
19623;SDS011;9959;49.798;9.928;2023-02-11T16:59:49;50.38;;;23.70;;
19623;SDS011;9959;49.798;9.928;2023-02-11T17:04:57;51.55;;;23.80;;
19623;SDS011;9959;49.798;9.928;2023-02-11T17:07:26;53.15;;;23.52;;
19623;SDS011;9959;49.798;9.928;2023-02-11T17:12:22;48.45;;;22.98;;
19623;SDS011;9959;49.798;9.928;2023-02-11T17:14:53;58.05;;;24.85;;
19623;SDS011;9959;49.798;9.928;2023-02-11T17:17:20;54.53;;;25.15;;
19623;SDS011;9959;49.798;9.928;2023-02-11T17:19:49;58.20;;;25.35;;
19623;SDS011;9959;49.798;9.928;2023-02-11T17:22:16;57.30;;;26.13;;
19623;SDS011;9959;49.798;9.928;2023-02-11T17:24:44;56.40;;;24.33;;
19623;SDS011;9959;49.798;9.928;2023-02-11T17:27:13;60.08;;;26.27;;
19623;SDS011;9959;49.798;9.928;2023-02-11T17:29:44;61.97;;;25.92;;
19623;SDS011;9959;49.798;9.928;2023-02-11T17:32:11;54.97;;;24.75;;
19623;SDS011;9959;49.798;9.928;2023-02-11T17:34:41;55.53;;;24.80;;
19623;SDS011;9959;49.798;9.928;2023-02-11T17:37:08;57.33;;;24.63;;
19623;SDS011;9959;49.798;9.928;2023-02-11T17:39:35;51.38;;;24.95;;
19623;SDS011;9959;49.798;9.928;2023-02-11T17:42:03;54.03;;;25.95;;
19623;SDS011;9959;49.798;9.928;2023-02-11T17:44:34;58.45;;;26.55;;
19623;SDS011;9959;49.798;9.928;2023-02-11T17:47:01;52.15;;;23.88;;
19623;SDS011;9959;49.798;9.928;2023-02-11T17:49:28;51.00;;;24.02;;
19623;SDS011;9959;49.798;9.928;2023-02-11T17:51:55;52.38;;;24.48;;
19623;SDS011;9959;49.798;9.928;2023-02-11T17:54:22;54.40;;;25.08;;
19623;SDS011;9959;49.798;9.928;2023-02-11T17:56:50;52.58;;;24.02;;
19623;SDS011;9959;49.798;9.928;2023-02-11T17:59:19;57.38;;;26.73;;
19623;SDS011;9959;49.798;9.928;2023-02-11T18:01:46;50.70;;;24.30;;
19623;SDS011;9959;49.798;9.928;2023-02-11T18:04:15;54.35;;;24.70;;
19623;SDS011;9959;49.798;9.928;2023-02-11T18:06:44;52.88;;;26.20;;